createdAt,value
2023-06-17T00:00:42.639Z,20.10
2023-06-17T00:03:09.580Z,20.05
2023-06-17T00:05:37.088Z,20.00
2023-06-17T00:08:03.661Z,19.97
2023-06-17T00:10:30.362Z,19.93
2023-06-17T00:12:56.857Z,19.89
2023-06-17T00:15:23.969Z,19.85
2023-06-17T00:17:51.508Z,19.77
2023-06-17T00:20:18.448Z,19.71
2023-06-17T00:22:45.648Z,19.64
2023-06-17T00:25:13.306Z,19.60
2023-06-17T00:27:40.407Z,19.54
2023-06-17T00:30:08.451Z,19.49
2023-06-17T00:32:35.521Z,19.45
2023-06-17T00:35:06.481Z,19.42
2023-06-17T00:37:33.339Z,19.37
2023-06-17T00:40:00.096Z,19.33
2023-06-17T00:42:26.871Z,19.31
2023-06-17T00:44:53.566Z,19.33
2023-06-17T00:47:20.984Z,19.33
2023-06-17T00:49:48.304Z,19.29
2023-06-17T00:52:31.658Z,19.25
2023-06-17T00:55:02.883Z,19.20
2023-06-17T00:57:30.445Z,19.17
2023-06-17T00:59:57.307Z,19.15
2023-06-17T01:02:26.678Z,19.15
2023-06-17T01:04:55.054Z,19.16
2023-06-17T01:07:51.657Z,19.16
2023-06-17T01:10:25.529Z,19.14
2023-06-17T01:12:55.102Z,19.13
2023-06-17T01:15:22.978Z,19.09
2023-06-17T01:17:55.529Z,19.03
2023-06-17T01:20:24.066Z,19.03
2023-06-17T01:22:55.990Z,19.00
2023-06-17T01:25:30.416Z,18.95
2023-06-17T01:28:00.364Z,18.89
2023-06-17T01:30:31.123Z,18.85
2023-06-17T01:32:59.388Z,18.82
2023-06-17T01:35:32.838Z,18.77
2023-06-17T01:38:26.383Z,18.76
2023-06-17T01:41:02.548Z,18.71
2023-06-17T01:43:32.986Z,18.67
2023-06-17T01:46:01.589Z,18.63
2023-06-17T01:48:28.277Z,18.61
2023-06-17T01:50:54.813Z,18.61
2023-06-17T01:53:23.158Z,18.57
2023-06-17T01:55:52.153Z,18.56
2023-06-17T01:58:18.689Z,18.53
2023-06-17T02:00:45.145Z,18.52
2023-06-17T02:03:11.815Z,18.49
2023-06-17T02:05:38.355Z,18.47
2023-06-17T02:08:06.530Z,18.43
2023-06-17T02:10:33.327Z,18.38
2023-06-17T02:13:04.430Z,18.35
2023-06-17T02:15:32.212Z,18.34
2023-06-17T02:17:59.244Z,18.30
2023-06-17T02:20:26.695Z,18.28
2023-06-17T02:22:53.602Z,18.22
2023-06-17T02:25:22.437Z,18.21
2023-06-17T02:27:49.526Z,18.20
2023-06-17T02:30:16.048Z,18.17
2023-06-17T02:32:42.535Z,18.16
2023-06-17T02:35:10.034Z,18.13
2023-06-17T02:37:37.264Z,18.11
2023-06-17T02:40:09.923Z,18.09
2023-06-17T02:42:40.281Z,18.10
2023-06-17T02:45:08.436Z,18.11
2023-06-17T02:47:35.137Z,18.12
2023-06-17T02:50:01.763Z,18.13
2023-06-17T02:52:31.683Z,18.14
2023-06-17T02:54:58.124Z,18.08
2023-06-17T02:57:24.635Z,18.03
2023-06-17T02:59:51.360Z,18.00
2023-06-17T03:02:17.840Z,17.97
2023-06-17T03:04:44.462Z,17.94
2023-06-17T03:07:16.827Z,17.91
2023-06-17T03:09:44.273Z,17.87
2023-06-17T03:12:10.958Z,17.85
2023-06-17T03:14:37.495Z,17.81
2023-06-17T03:17:07.244Z,17.78
2023-06-17T03:19:34.241Z,17.76
2023-06-17T03:22:02.067Z,17.74
2023-06-17T03:24:31.680Z,17.71
2023-06-17T03:26:59.460Z,17.71
2023-06-17T03:29:26.783Z,17.72
2023-06-17T03:31:57.829Z,17.71
2023-06-17T03:34:26.412Z,17.68
2023-06-17T03:36:53.329Z,17.66
2023-06-17T03:39:20.645Z,17.66
2023-06-17T03:41:47.724Z,17.64
2023-06-17T03:44:14.736Z,17.64
2023-06-17T03:46:41.275Z,17.62
2023-06-17T03:49:07.810Z,17.62
2023-06-17T03:51:35.712Z,17.60
2023-06-17T03:54:03.498Z,17.59
2023-06-17T03:56:33.998Z,17.59
2023-06-17T03:59:00.520Z,17.58
2023-06-17T04:01:26.978Z,17.55
2023-06-17T04:03:53.542Z,17.54
2023-06-17T04:06:20.405Z,17.61
2023-06-17T04:08:48.059Z,17.76
2023-06-17T04:11:15.725Z,17.92
2023-06-17T04:13:42.336Z,17.94
2023-06-17T04:16:08.860Z,17.89
2023-06-17T04:18:35.444Z,17.85
2023-06-17T04:21:02.848Z,17.83
2023-06-17T04:23:31.228Z,17.81
2023-06-17T04:25:57.783Z,17.82
2023-06-17T04:28:24.771Z,17.82
2023-06-17T04:30:52.778Z,17.83
2023-06-17T04:33:19.796Z,17.84
2023-06-17T04:35:48.435Z,17.86
2023-06-17T04:38:15.722Z,17.87
2023-06-17T04:40:43.077Z,17.90
2023-06-17T04:43:10.950Z,17.92
2023-06-17T04:45:37.465Z,17.96
2023-06-17T04:48:07.072Z,17.97
2023-06-17T04:50:34.558Z,18.00
2023-06-17T04:53:04.852Z,18.02
2023-06-17T04:55:36.537Z,18.04
2023-06-17T04:58:05.208Z,18.08
2023-06-17T05:00:40.527Z,18.12
2023-06-17T05:03:08.051Z,18.14
2023-06-17T05:05:36.546Z,18.18
2023-06-17T05:08:04.140Z,18.21
2023-06-17T05:10:31.067Z,18.23
2023-06-17T05:12:57.621Z,18.27
2023-06-17T05:15:26.528Z,18.30
2023-06-17T05:17:53.400Z,18.32
2023-06-17T05:20:20.414Z,18.36
2023-06-17T05:22:47.318Z,18.39
2023-06-17T05:25:13.813Z,18.44
2023-06-17T05:27:40.433Z,18.50
2023-06-17T05:30:08.918Z,18.58
2023-06-17T05:32:36.111Z,18.74
2023-06-17T05:35:02.713Z,18.97
2023-06-17T05:37:32.986Z,19.19
2023-06-17T05:40:00.709Z,19.43
2023-06-17T05:42:27.556Z,19.59
2023-06-17T05:44:54.133Z,19.69
2023-06-17T05:47:20.656Z,19.82
2023-06-17T05:49:47.163Z,19.95
2023-06-17T05:52:13.631Z,20.06
2023-06-17T05:54:40.218Z,20.12
2023-06-17T05:57:06.851Z,20.16
2023-06-17T05:59:33.366Z,20.15
2023-06-17T06:01:59.952Z,20.11
2023-06-17T06:04:26.970Z,20.09
2023-06-17T06:06:54.113Z,20.09
2023-06-17T06:09:20.665Z,20.10
2023-06-17T06:11:47.704Z,20.09
2023-06-17T06:14:17.389Z,20.06
2023-06-17T06:16:46.657Z,20.02
2023-06-17T06:19:13.372Z,20.00
2023-06-17T06:21:39.985Z,19.98
2023-06-17T06:24:06.834Z,19.95
2023-06-17T06:26:37.351Z,19.95
2023-06-17T06:29:05.255Z,19.93
2023-06-17T06:31:32.292Z,19.90
2023-06-17T06:33:58.814Z,19.92
2023-06-17T06:36:25.279Z,19.96
2023-06-17T06:38:52.563Z,19.97
2023-06-17T06:41:19.871Z,20.00
2023-06-17T06:43:56.236Z,20.02
2023-06-17T06:46:24.082Z,20.06
2023-06-17T06:48:50.583Z,20.07
2023-06-17T06:51:17.218Z,20.10
2023-06-17T06:53:43.723Z,20.09
2023-06-17T06:56:10.421Z,20.09
2023-06-17T06:58:38.764Z,20.12
2023-06-17T07:01:06.556Z,20.17
2023-06-17T07:03:33.729Z,20.23
2023-06-17T07:06:00.416Z,20.25
2023-06-17T07:08:27.010Z,20.28
2023-06-17T07:10:53.769Z,20.31
2023-06-17T07:13:21.773Z,20.34
2023-06-17T07:15:51.190Z,20.35
2023-06-17T07:18:19.279Z,20.39
2023-06-17T07:20:46.016Z,20.44
2023-06-17T07:23:12.979Z,20.49
2023-06-17T07:25:39.941Z,20.52
2023-06-17T07:28:08.291Z,20.53
2023-06-17T07:30:35.630Z,20.58
2023-06-17T07:33:02.231Z,20.59
2023-06-17T07:35:30.046Z,20.63
2023-06-17T07:37:57.044Z,20.69
2023-06-17T07:40:24.126Z,20.73
2023-06-17T07:42:50.734Z,20.74
2023-06-17T07:45:17.191Z,20.73
2023-06-17T07:47:43.720Z,20.73
2023-06-17T07:50:10.684Z,20.73
2023-06-17T07:52:37.784Z,20.81
2023-06-17T07:55:08.181Z,20.86
2023-06-17T07:57:35.102Z,20.89
2023-06-17T08:00:01.948Z,20.91
2023-06-17T08:02:43.790Z,20.94
2023-06-17T08:05:10.858Z,20.98
2023-06-17T08:07:37.550Z,21.04
2023-06-17T08:10:06.027Z,21.05
2023-06-17T08:12:34.456Z,21.11
2023-06-17T08:15:00.991Z,21.14
2023-06-17T08:17:27.466Z,21.18
2023-06-17T08:19:53.977Z,21.22
2023-06-17T08:22:21.289Z,21.30
2023-06-17T08:24:47.746Z,21.39
2023-06-17T08:27:14.654Z,21.47
2023-06-17T08:29:41.522Z,21.57
2023-06-17T08:32:08.440Z,21.57
2023-06-17T08:34:36.213Z,21.58
2023-06-17T08:37:05.243Z,21.58
2023-06-17T08:39:32.904Z,21.64
2023-06-17T08:41:59.446Z,21.68
2023-06-17T08:44:27.484Z,21.67
2023-06-17T08:46:54.495Z,21.66
2023-06-17T08:49:22.605Z,21.70
2023-06-17T08:51:50.796Z,21.72
2023-06-17T08:54:19.551Z,21.78
2023-06-17T08:56:46.146Z,21.81
2023-06-17T08:59:12.661Z,21.85
2023-06-17T09:01:39.738Z,21.89
2023-06-17T09:04:06.358Z,21.95
2023-06-17T09:06:33.004Z,22.04
2023-06-17T09:08:59.547Z,22.11
2023-06-17T09:11:30.559Z,22.18
2023-06-17T09:13:59.312Z,22.18
2023-06-17T09:16:36.990Z,22.23
2023-06-17T09:19:14.130Z,22.35
2023-06-17T09:21:41.520Z,22.39
2023-06-17T09:24:12.386Z,22.41
2023-06-17T09:26:43.585Z,22.44
2023-06-17T09:29:14.572Z,22.45
2023-06-17T09:31:48.194Z,22.52
2023-06-17T09:34:15.487Z,22.57
2023-06-17T09:36:42.442Z,22.56
2023-06-17T09:39:13.338Z,22.46
2023-06-17T09:41:41.069Z,22.54
2023-06-17T09:44:08.320Z,22.60
2023-06-17T09:46:40.940Z,22.72
2023-06-17T09:49:10.724Z,22.81
2023-06-17T09:51:39.057Z,22.83
2023-06-17T09:54:07.222Z,22.91
2023-06-17T09:56:34.293Z,22.96
2023-06-17T09:59:02.061Z,22.93
2023-06-17T10:01:39.737Z,23.01
2023-06-17T10:04:08.317Z,23.10
2023-06-17T10:06:40.354Z,23.14
2023-06-17T10:09:09.715Z,23.24
2023-06-17T10:11:36.781Z,23.27
2023-06-17T10:14:15.976Z,23.30
2023-06-17T10:16:46.358Z,23.30
2023-06-17T10:19:18.051Z,23.29
2023-06-17T10:21:47.929Z,23.34
2023-06-17T10:24:16.619Z,23.43
2023-06-17T10:26:43.302Z,23.45
2023-06-17T10:29:11.741Z,23.51
2023-06-17T10:31:40.394Z,23.45
2023-06-17T10:34:09.628Z,23.48
2023-06-17T10:36:39.140Z,23.46
2023-06-17T10:39:07.233Z,23.54
2023-06-17T10:41:39.485Z,23.66
2023-06-17T10:44:21.192Z,23.77
2023-06-17T10:46:51.629Z,23.78
2023-06-17T10:49:19.254Z,23.84
2023-06-17T10:51:57.870Z,23.86
2023-06-17T10:54:29.973Z,23.79
2023-06-17T10:56:56.443Z,23.83
2023-06-17T10:59:27.089Z,23.90
2023-06-17T11:02:00.921Z,23.89
2023-06-17T11:04:33.963Z,23.88
2023-06-17T11:07:01.914Z,23.98
2023-06-17T11:09:29.402Z,23.99
2023-06-17T11:11:57.077Z,24.00
2023-06-17T11:14:27.056Z,24.01
2023-06-17T11:16:53.634Z,24.03
2023-06-17T11:19:20.654Z,24.12
2023-06-17T11:21:51.924Z,24.09
2023-06-17T11:24:18.655Z,24.16
2023-06-17T11:26:45.220Z,24.20
2023-06-17T11:29:12.255Z,24.25
2023-06-17T11:31:41.301Z,24.33
2023-06-17T11:34:08.329Z,24.38
2023-06-17T11:36:35.356Z,24.45
2023-06-17T11:39:03.040Z,24.49
2023-06-17T11:41:30.016Z,24.63
2023-06-17T11:43:56.592Z,24.67
2023-06-17T11:46:24.442Z,24.71
2023-06-17T11:48:51.332Z,24.75
2023-06-17T11:51:19.010Z,24.77
2023-06-17T11:53:47.621Z,24.78
2023-06-17T11:56:21.322Z,24.83
2023-06-17T11:58:51.960Z,24.89
2023-06-17T12:01:25.519Z,24.85
2023-06-17T12:03:52.548Z,24.84
2023-06-17T12:06:21.096Z,24.87
2023-06-17T12:08:58.058Z,24.90
2023-06-17T12:11:30.221Z,24.87
2023-06-17T12:13:57.432Z,24.84
2023-06-17T12:16:37.625Z,24.89
2023-06-17T12:19:13.858Z,24.89
2023-06-17T12:21:40.821Z,25.01
2023-06-17T12:24:07.438Z,25.00
2023-06-17T12:26:33.964Z,24.99
2023-06-17T12:29:03.100Z,24.99
2023-06-17T12:31:32.349Z,24.95
2023-06-17T12:33:59.057Z,24.84
2023-06-17T12:36:25.895Z,24.85
2023-06-17T12:38:52.693Z,24.83
2023-06-17T12:41:19.173Z,24.89
2023-06-17T12:46:12.473Z,25.12
2023-06-17T12:48:39.022Z,25.13
2023-06-17T12:51:05.553Z,25.08
2023-06-17T12:53:33.052Z,25.11
2023-06-17T12:55:59.958Z,25.17
2023-06-17T12:58:27.067Z,25.19
2023-06-17T13:00:54.486Z,25.17
2023-06-17T13:03:21.576Z,25.22
2023-06-17T13:05:49.969Z,25.27
2023-06-17T13:08:17.132Z,25.32
2023-06-17T13:10:43.659Z,25.43
2023-06-17T13:13:10.245Z,25.44
2023-06-17T13:15:36.752Z,25.45
2023-06-17T13:18:04.015Z,25.56
2023-06-17T13:20:31.232Z,25.61
2023-06-17T13:22:59.348Z,25.61
2023-06-17T13:25:25.983Z,25.61
2023-06-17T13:27:52.814Z,25.64
2023-06-17T13:30:19.742Z,25.65
2023-06-17T13:32:46.349Z,25.74
2023-06-17T13:35:12.922Z,25.77
2023-06-17T13:37:39.916Z,25.80
2023-06-17T13:40:06.966Z,25.77
2023-06-17T13:42:34.335Z,25.77
2023-06-17T13:45:00.996Z,25.81
2023-06-17T13:47:27.769Z,25.82
2023-06-17T13:49:54.386Z,25.84
2023-06-17T13:52:21.081Z,25.80
2023-06-17T13:54:47.580Z,25.73
2023-06-17T13:57:15.933Z,25.73
2023-06-17T13:59:43.162Z,25.70
2023-06-17T14:02:10.034Z,25.70
2023-06-17T14:04:36.630Z,25.66
2023-06-17T14:07:03.469Z,25.69
2023-06-17T14:09:30.436Z,25.73
2023-06-17T14:11:57.334Z,25.78
2023-06-17T14:14:24.017Z,25.74
2023-06-17T14:16:50.701Z,25.79
2023-06-17T14:19:17.206Z,25.75
2023-06-17T14:21:57.369Z,25.68
2023-06-17T14:24:23.949Z,25.67
2023-06-17T14:27:38.856Z,25.67
2023-06-17T14:30:07.223Z,25.68
2023-06-17T14:32:33.848Z,25.74
2023-06-17T14:35:00.546Z,25.77
2023-06-17T14:37:27.192Z,25.78
2023-06-17T14:39:53.642Z,25.75
2023-06-17T14:42:20.211Z,25.78
2023-06-17T14:44:46.694Z,25.81
2023-06-17T14:47:13.142Z,25.79
2023-06-17T14:49:39.601Z,25.77
2023-06-17T14:52:07.094Z,25.76
2023-06-17T14:54:34.429Z,25.78
2023-06-17T14:57:01.225Z,25.77
2023-06-17T14:59:27.713Z,25.71
2023-06-17T15:01:54.475Z,25.67
2023-06-17T15:04:20.916Z,25.54
2023-06-17T15:06:47.653Z,25.49
2023-06-17T15:09:27.414Z,25.49
2023-06-17T15:11:56.918Z,25.44
2023-06-17T15:14:24.594Z,25.43
2023-06-17T15:16:51.467Z,25.41
2023-06-17T15:19:18.633Z,25.35
2023-06-17T15:21:46.250Z,25.30
2023-06-17T15:24:13.571Z,25.31
2023-06-17T15:26:40.656Z,25.32
2023-06-17T15:29:07.484Z,25.30
2023-06-17T15:31:35.025Z,25.35
2023-06-17T15:34:02.006Z,25.25
2023-06-17T15:36:29.252Z,25.08
2023-06-17T15:39:01.428Z,25.05
2023-06-17T15:41:28.373Z,24.99
2023-06-17T15:43:55.632Z,24.96
2023-06-17T15:46:22.217Z,25.00
2023-06-17T15:48:49.129Z,25.04
2023-06-17T15:51:16.238Z,24.96
2023-06-17T15:53:42.751Z,24.90
2023-06-17T15:56:09.175Z,24.90
2023-06-17T15:58:35.623Z,24.93
2023-06-17T16:01:02.195Z,24.81
2023-06-17T16:03:30.198Z,24.74
2023-06-17T16:05:58.603Z,24.75
2023-06-17T16:08:26.161Z,24.76
2023-06-17T16:10:52.739Z,24.78
2023-06-17T16:13:19.901Z,24.63
2023-06-17T16:15:46.328Z,24.54
2023-06-17T16:18:12.820Z,24.56
2023-06-17T16:20:39.340Z,24.56
2023-06-17T16:23:05.893Z,24.62
2023-06-17T16:25:45.106Z,24.64
2023-06-17T16:28:18.752Z,24.72
2023-06-17T16:30:45.277Z,24.71
2023-06-17T16:33:11.803Z,24.72
2023-06-17T16:35:38.323Z,24.69
2023-06-17T16:38:04.840Z,24.69
2023-06-17T16:40:31.330Z,24.69
2023-06-17T16:42:58.261Z,24.65
2023-06-17T16:45:24.869Z,24.61
2023-06-17T16:47:52.496Z,24.63
2023-06-17T16:50:19.259Z,24.66
2023-06-17T16:52:45.953Z,24.61
2023-06-17T16:55:12.385Z,24.53
2023-06-17T16:57:38.867Z,24.42
2023-06-17T17:00:06.452Z,24.33
2023-06-17T17:02:33.073Z,24.24
2023-06-17T17:04:59.758Z,24.18
2023-06-17T17:07:26.237Z,24.12
2023-06-17T17:09:52.686Z,24.10
2023-06-17T17:12:19.198Z,24.10
2023-06-17T17:14:45.643Z,24.08
2023-06-17T17:17:12.920Z,24.08
2023-06-17T17:19:39.685Z,24.10
2023-06-17T17:22:06.271Z,24.15
2023-06-17T17:24:32.831Z,24.17
2023-06-17T17:26:59.423Z,24.24
2023-06-17T17:29:26.147Z,24.20
2023-06-17T17:31:52.653Z,24.20
2023-06-17T17:34:19.097Z,24.14
2023-06-17T17:36:45.566Z,24.14
2023-06-17T17:39:12.034Z,24.17
2023-06-17T17:41:38.500Z,24.20
2023-06-17T17:44:04.986Z,24.14
2023-06-17T17:46:31.721Z,24.19
2023-06-17T17:48:58.330Z,24.21
2023-06-17T17:51:25.145Z,24.23
2023-06-17T17:53:51.583Z,24.20
2023-06-17T17:56:18.084Z,24.09
2023-06-17T17:58:44.851Z,24.01
2023-06-17T18:01:11.312Z,23.96
2023-06-17T18:03:39.314Z,24.05
2023-06-17T18:06:06.050Z,24.05
2023-06-17T18:08:32.484Z,24.05
2023-06-17T18:10:59.117Z,24.05
2023-06-17T18:13:27.709Z,23.92
2023-06-17T18:15:54.204Z,23.78
2023-06-17T18:18:20.746Z,23.70
2023-06-17T18:20:47.211Z,23.64
2023-06-17T18:23:13.710Z,23.60
2023-06-17T18:25:40.186Z,23.70
2023-06-17T18:28:06.643Z,23.76
2023-06-17T18:30:33.104Z,23.84
2023-06-17T18:32:59.602Z,23.91
2023-06-17T18:35:26.132Z,23.91
2023-06-17T18:37:52.653Z,23.77
2023-06-17T18:42:45.771Z,23.67
2023-06-17T18:45:12.238Z,23.68
2023-06-17T18:47:38.782Z,23.76
2023-06-17T18:50:07.082Z,23.83
2023-06-17T18:52:33.614Z,23.81
2023-06-17T18:55:00.151Z,23.70
2023-06-17T18:57:27.055Z,23.60
2023-06-17T18:59:53.543Z,23.61
2023-06-17T19:02:21.230Z,23.59
2023-06-17T19:04:47.878Z,23.57
2023-06-17T19:07:14.540Z,23.58
2023-06-17T19:09:40.991Z,23.55
2023-06-17T19:12:08.013Z,23.56
2023-06-17T19:14:35.765Z,23.55
2023-06-17T19:17:02.281Z,23.49
2023-06-17T19:19:29.311Z,23.43
2023-06-17T19:21:55.800Z,23.34
2023-06-17T19:24:22.312Z,23.25
2023-06-17T19:26:48.781Z,23.22
2023-06-17T19:29:15.334Z,23.31
2023-06-17T19:31:41.812Z,23.41
2023-06-17T19:34:08.259Z,23.45
2023-06-17T19:36:34.858Z,23.41
2023-06-17T19:39:01.326Z,23.35
2023-06-17T19:41:28.909Z,23.29
2023-06-17T19:43:56.746Z,23.22
2023-06-17T19:46:23.609Z,23.26
2023-06-17T19:48:50.522Z,23.34
2023-06-17T19:51:17.123Z,23.37
2023-06-17T19:53:43.587Z,23.35
2023-06-17T19:56:10.032Z,23.33
2023-06-17T19:58:36.616Z,23.33
2023-06-17T20:01:03.218Z,23.34
2023-06-17T20:03:29.896Z,23.35
2023-06-17T20:05:56.563Z,23.38
2023-06-17T20:08:23.615Z,23.43
2023-06-17T20:10:50.077Z,23.47
2023-06-17T20:13:16.549Z,23.38
2023-06-17T20:15:43.572Z,23.32
2023-06-17T20:18:10.672Z,23.24
2023-06-17T20:20:37.197Z,23.26
2023-06-17T20:23:03.660Z,23.26
2023-06-17T20:25:30.232Z,23.29
2023-06-17T20:27:56.802Z,23.27
2023-06-17T20:30:23.390Z,23.24
2023-06-17T20:32:50.013Z,23.27
2023-06-17T20:35:16.581Z,23.28
2023-06-17T20:37:44.010Z,23.32
2023-06-17T20:40:10.752Z,23.37
2023-06-17T20:42:37.721Z,23.35
2023-06-17T20:45:08.634Z,23.37
2023-06-17T20:47:35.658Z,23.40
2023-06-17T20:50:02.433Z,23.42
2023-06-17T20:52:28.974Z,23.47
2023-06-17T20:54:55.579Z,23.50
2023-06-17T20:57:22.038Z,23.54
2023-06-17T20:59:49.106Z,23.55
2023-06-17T21:02:16.794Z,23.57
2023-06-17T21:04:43.306Z,23.51
2023-06-17T21:07:09.774Z,23.46
2023-06-17T21:09:36.685Z,23.47
2023-06-17T21:12:03.639Z,23.42
2023-06-17T21:14:31.407Z,23.35
2023-06-17T21:16:57.983Z,23.36
2023-06-17T21:19:24.606Z,23.27
2023-06-17T21:21:51.422Z,23.29
2023-06-17T21:24:19.452Z,23.33
2023-06-17T21:26:45.905Z,23.37
2023-06-17T21:29:12.350Z,23.32
2023-06-17T21:31:38.830Z,23.33
2023-06-17T21:34:05.337Z,23.35
2023-06-17T21:36:31.879Z,23.29
2023-06-17T21:38:58.336Z,23.20
2023-06-17T21:41:24.834Z,23.15
2023-06-17T21:43:51.516Z,23.20
2023-06-17T21:46:18.202Z,23.23
2023-06-17T21:48:44.730Z,23.27
2023-06-17T21:51:11.253Z,23.23
2023-06-17T21:53:37.727Z,23.21
2023-06-17T21:56:04.325Z,23.25
2023-06-17T21:58:30.880Z,23.24
2023-06-17T22:00:57.399Z,23.20
2023-06-17T22:03:27.193Z,23.22
2023-06-17T22:05:53.785Z,23.27
2023-06-17T22:08:24.740Z,23.32
2023-06-17T22:10:57.607Z,23.35
2023-06-17T22:13:24.073Z,23.37
2023-06-17T22:15:50.607Z,23.36
2023-06-17T22:18:17.188Z,23.35
2023-06-17T22:20:44.004Z,23.35
2023-06-17T22:23:10.642Z,23.29
2023-06-17T22:25:37.152Z,23.20
2023-06-17T22:28:03.859Z,23.13
2023-06-17T22:30:30.636Z,23.10
2023-06-17T22:32:57.248Z,23.11
2023-06-17T22:35:23.738Z,23.15
2023-06-17T22:37:50.305Z,23.17
2023-06-17T22:40:16.776Z,23.20
2023-06-17T22:42:43.287Z,23.15
2023-06-17T22:45:10.157Z,23.15
2023-06-17T22:47:37.148Z,23.17
2023-06-17T22:50:04.863Z,23.17
2023-06-17T22:52:31.386Z,23.10
2023-06-17T22:55:00.199Z,23.11
2023-06-17T22:57:27.555Z,23.11
2023-06-17T22:59:54.007Z,23.06
2023-06-17T23:02:20.836Z,22.99
2023-06-17T23:04:48.620Z,22.97
2023-06-17T23:07:15.222Z,22.92
2023-06-17T23:09:41.760Z,22.91
2023-06-17T23:12:08.744Z,22.92
2023-06-17T23:14:35.435Z,22.84
2023-06-17T23:17:01.983Z,22.84
2023-06-17T23:19:28.723Z,22.86
2023-06-17T23:21:55.231Z,22.85
2023-06-17T23:24:21.994Z,22.89
2023-06-17T23:26:48.475Z,22.95
2023-06-17T23:29:14.950Z,23.01
2023-06-17T23:31:41.419Z,23.01
2023-06-17T23:34:07.894Z,23.00
2023-06-17T23:36:34.298Z,22.99
2023-06-17T23:39:04.764Z,23.01
2023-06-17T23:41:31.223Z,22.98
2023-06-17T23:43:58.037Z,22.88
2023-06-17T23:46:25.165Z,22.88
2023-06-17T23:48:51.764Z,22.91
2023-06-17T23:51:18.211Z,22.93
2023-06-17T23:53:44.681Z,22.85
2023-06-17T23:56:11.203Z,22.82
2023-06-17T23:58:37.690Z,22.76
